createdAt,value
2017-12-09T00:00:39.585Z,99.90
2017-12-09T00:03:10.012Z,99.90
2017-12-09T00:05:40.762Z,99.90
2017-12-09T00:08:11.197Z,99.90
2017-12-09T00:10:41.631Z,99.90
2017-12-09T00:13:12.462Z,99.90
2017-12-09T00:15:42.895Z,99.90
2017-12-09T00:18:13.681Z,99.90
2017-12-09T00:20:44.142Z,99.90
2017-12-09T00:23:14.598Z,99.90
2017-12-09T00:25:45.240Z,99.90
2017-12-09T00:28:16.507Z,99.90
2017-12-09T00:30:47.275Z,99.90
2017-12-09T00:33:17.695Z,99.90
2017-12-09T00:35:48.104Z,99.90
2017-12-09T00:38:18.522Z,99.90
2017-12-09T00:40:49.277Z,99.90
2017-12-09T00:43:20.011Z,99.90
2017-12-09T00:45:50.472Z,99.90
2017-12-09T00:48:20.890Z,99.90
2017-12-09T00:50:51.336Z,99.90
2017-12-09T00:53:21.775Z,99.90
2017-12-09T00:55:53.021Z,99.90
2017-12-09T00:58:25.252Z,99.90
2017-12-09T01:00:58.997Z,99.90
2017-12-09T01:03:30.173Z,99.90
2017-12-09T01:06:00.664Z,99.90
2017-12-09T01:08:31.864Z,99.90
2017-12-09T01:11:02.298Z,99.90
2017-12-09T01:13:33.531Z,99.90
2017-12-09T01:16:14.869Z,99.90
2017-12-09T01:18:56.718Z,99.90
2017-12-09T01:21:27.957Z,99.90
2017-12-09T01:23:58.374Z,99.90
2017-12-09T01:26:29.661Z,99.80
2017-12-09T01:29:00.080Z,99.50
2017-12-09T01:31:31.030Z,98.80
2017-12-09T01:34:01.459Z,98.80
2017-12-09T01:36:32.917Z,98.90
2017-12-09T01:39:04.166Z,98.40
2017-12-09T01:41:35.719Z,98.00
2017-12-09T01:44:07.424Z,98.20
2017-12-09T01:46:37.874Z,98.00
2017-12-09T01:49:08.410Z,97.30
2017-12-09T01:51:38.794Z,97.20
2017-12-09T01:54:09.588Z,97.00
2017-12-09T01:56:40.856Z,97.30
2017-12-09T01:59:11.309Z,97.20
2017-12-09T02:01:42.137Z,97.20
2017-12-09T02:04:12.905Z,97.20
2017-12-09T02:06:45.998Z,96.70
2017-12-09T02:12:47.677Z,96.70
2017-12-09T02:15:18.367Z,96.80
2017-12-09T02:17:48.854Z,96.60
2017-12-09T02:20:19.300Z,96.80
2017-12-09T02:22:49.772Z,97.10
2017-12-09T02:25:21.005Z,97.20
2017-12-09T02:27:51.663Z,97.20
2017-12-09T02:30:23.480Z,97.30
2017-12-09T02:32:54.244Z,97.30
2017-12-09T02:35:25.802Z,97.70
2017-12-09T02:37:57.075Z,97.50
2017-12-09T02:40:27.489Z,97.50
2017-12-09T02:42:58.867Z,97.70
2017-12-09T02:45:29.813Z,97.60
2017-12-09T02:48:00.316Z,97.80
2017-12-09T02:50:31.128Z,98.00
2017-12-09T02:53:02.391Z,97.80
2017-12-09T02:55:32.872Z,97.80
2017-12-09T02:58:03.916Z,98.00
2017-12-09T03:00:34.369Z,97.90
2017-12-09T03:03:06.025Z,97.80
2017-12-09T03:05:37.219Z,97.90
2017-12-09T03:08:08.038Z,97.90
2017-12-09T03:10:38.562Z,98.10
2017-12-09T03:13:09.025Z,97.60
2017-12-09T03:15:39.827Z,97.60
2017-12-09T03:18:10.792Z,97.40
2017-12-09T03:20:41.223Z,97.50
2017-12-09T03:23:12.040Z,97.60
2017-12-09T03:25:43.078Z,97.50
2017-12-09T03:28:13.961Z,97.30
2017-12-09T03:30:44.443Z,97.20
2017-12-09T03:33:15.266Z,97.30
2017-12-09T03:35:45.768Z,97.40
2017-12-09T03:38:17.312Z,97.20
2017-12-09T03:40:48.549Z,97.20
2017-12-09T03:43:19.359Z,97.10
2017-12-09T03:45:53.928Z,97.00
2017-12-09T03:48:26.086Z,96.90
2017-12-09T03:50:59.331Z,96.30
2017-12-09T03:53:35.460Z,96.30
2017-12-09T03:56:05.975Z,96.40
2017-12-09T03:58:37.562Z,96.50
2017-12-09T04:01:08.017Z,96.50
2017-12-09T04:03:38.862Z,96.50
2017-12-09T04:06:09.602Z,96.70
2017-12-09T04:08:41.343Z,96.50
2017-12-09T04:11:12.074Z,96.40
2017-12-09T04:13:43.384Z,96.30
2017-12-09T04:16:17.582Z,96.10
2017-12-09T04:18:49.848Z,95.90
2017-12-09T04:21:23.295Z,96.00
2017-12-09T04:23:54.846Z,96.00
2017-12-09T04:26:26.458Z,96.10
2017-12-09T04:28:59.322Z,96.10
2017-12-09T04:31:32.370Z,96.10
2017-12-09T04:34:04.247Z,95.80
2017-12-09T04:36:34.711Z,95.80
2017-12-09T04:39:06.177Z,95.50
2017-12-09T04:41:37.107Z,95.50
2017-12-09T04:44:08.373Z,95.70
2017-12-09T04:46:39.136Z,95.70
2017-12-09T04:49:09.630Z,95.60
2017-12-09T04:51:40.413Z,94.90
2017-12-09T04:54:10.896Z,94.90
2017-12-09T04:56:41.470Z,95.00
2017-12-09T04:59:11.978Z,95.00
2017-12-09T05:01:42.812Z,95.20
2017-12-09T05:04:13.844Z,95.40
2017-12-09T05:06:44.316Z,94.60
2017-12-09T05:09:14.900Z,93.30
2017-12-09T05:11:45.369Z,93.20
2017-12-09T05:14:15.832Z,93.20
2017-12-09T05:16:46.347Z,93.60
2017-12-09T05:19:17.645Z,93.90
2017-12-09T05:21:49.508Z,93.90
2017-12-09T05:24:20.087Z,94.00
2017-12-09T05:26:51.564Z,94.10
2017-12-09T05:29:22.071Z,94.10
2017-12-09T05:31:53.309Z,94.90
2017-12-09T05:34:24.549Z,94.40
2017-12-09T05:36:55.929Z,94.50
2017-12-09T05:39:26.602Z,94.50
2017-12-09T05:41:57.417Z,94.40
2017-12-09T05:44:27.944Z,94.30
2017-12-09T05:46:58.442Z,94.40
2017-12-09T05:49:28.991Z,94.60
2017-12-09T05:51:59.698Z,94.30
2017-12-09T05:54:31.744Z,94.50
2017-12-09T05:57:02.355Z,94.50
2017-12-09T05:59:32.931Z,94.30
2017-12-09T06:02:04.200Z,94.10
2017-12-09T06:04:35.025Z,94.10
2017-12-09T06:07:05.547Z,93.80
2017-12-09T06:09:36.381Z,93.60
2017-12-09T06:12:06.924Z,93.30
2017-12-09T06:14:37.436Z,93.40
2017-12-09T06:17:08.344Z,93.60
2017-12-09T06:19:38.886Z,93.50
2017-12-09T06:22:10.340Z,94.20
2017-12-09T06:24:41.598Z,94.00
2017-12-09T06:27:13.117Z,94.20
2017-12-09T06:29:43.995Z,94.20
2017-12-09T06:32:14.506Z,94.20
2017-12-09T06:34:45.806Z,94.80
2017-12-09T06:37:17.094Z,95.00
2017-12-09T06:39:51.639Z,95.40
2017-12-09T06:42:22.538Z,95.50
2017-12-09T06:44:53.103Z,95.30
2017-12-09T06:47:23.643Z,95.50
2017-12-09T06:49:54.153Z,95.50
2017-12-09T06:52:25.422Z,95.20
2017-12-09T06:54:56.213Z,95.20
2017-12-09T06:57:26.896Z,95.40
2017-12-09T06:59:57.408Z,95.40
2017-12-09T07:02:28.240Z,95.60
2017-12-09T07:04:58.764Z,95.60
2017-12-09T07:07:30.072Z,95.60
2017-12-09T07:10:01.719Z,95.60
2017-12-09T07:12:32.197Z,95.80
2017-12-09T07:15:03.476Z,94.40
2017-12-09T07:17:33.922Z,94.40
2017-12-09T07:20:04.421Z,94.60
2017-12-09T07:22:35.432Z,94.60
2017-12-09T07:25:06.697Z,94.90
2017-12-09T07:27:37.441Z,94.90
2017-12-09T07:30:07.952Z,94.50
2017-12-09T07:32:38.463Z,94.60
2017-12-09T07:35:09.744Z,94.70
2017-12-09T07:37:40.219Z,94.60
2017-12-09T07:40:11.103Z,93.90
2017-12-09T07:42:41.582Z,93.90
2017-12-09T07:45:12.575Z,94.50
2017-12-09T07:47:43.084Z,94.80
2017-12-09T07:50:14.398Z,95.40
2017-12-09T07:52:44.907Z,95.40
2017-12-09T07:55:15.442Z,95.00
2017-12-09T07:57:46.362Z,95.00
2017-12-09T08:00:18.619Z,94.70
2017-12-09T08:02:49.144Z,94.70
2017-12-09T08:05:19.673Z,94.90
2017-12-09T08:07:50.157Z,94.60
2017-12-09T08:10:21.038Z,94.70
2017-12-09T08:12:51.645Z,95.00
2017-12-09T08:15:23.280Z,95.10
2017-12-09T08:17:53.829Z,95.10
2017-12-09T08:20:25.100Z,94.60
2017-12-09T08:22:55.660Z,94.60
2017-12-09T08:25:26.228Z,95.00
2017-12-09T08:27:57.850Z,96.20
2017-12-09T08:30:28.305Z,96.20
2017-12-09T08:33:00.149Z,97.20
2017-12-09T08:35:30.960Z,97.40
2017-12-09T10:23:20.724Z,99.90
2017-12-09T10:25:51.586Z,99.90
2017-12-09T10:28:22.430Z,99.90
2017-12-09T10:30:52.875Z,99.90
2017-12-09T10:33:23.357Z,99.90
2017-12-09T10:35:53.843Z,99.90
2017-12-09T10:38:24.659Z,99.90
2017-12-09T10:40:55.316Z,99.90
2017-12-09T10:43:27.615Z,99.90
2017-12-09T10:45:58.132Z,99.90
2017-12-09T10:48:33.503Z,99.90
2017-12-09T10:51:05.990Z,99.90
2017-12-09T10:53:36.463Z,99.90
2017-12-09T10:56:07.977Z,99.90
2017-12-09T10:58:38.414Z,99.90
2017-12-09T11:01:08.843Z,99.90
2017-12-09T11:03:39.604Z,99.90
2017-12-09T11:06:10.843Z,99.90
2017-12-09T11:08:42.540Z,99.90
2017-12-09T11:11:13.005Z,99.90
2017-12-09T11:13:43.910Z,99.90
2017-12-09T11:16:14.392Z,99.90
2017-12-09T11:18:45.664Z,99.90
2017-12-09T11:21:16.120Z,99.90
2017-12-09T11:23:46.598Z,99.90
2017-12-09T11:26:17.986Z,99.90
2017-12-09T11:28:48.466Z,99.90
2017-12-09T11:31:19.717Z,99.90
2017-12-09T11:33:50.973Z,99.90
2017-12-09T11:36:21.513Z,99.90
2017-12-09T11:38:52.178Z,99.90
2017-12-09T11:41:22.617Z,99.90
2017-12-09T11:43:53.162Z,99.90
2017-12-09T11:46:23.640Z,99.90
2017-12-09T11:48:54.142Z,99.90
2017-12-09T11:51:25.860Z,99.90
2017-12-09T11:53:56.346Z,99.90
2017-12-09T11:56:27.133Z,99.90
2017-12-09T11:58:57.581Z,99.90
2017-12-09T12:01:28.831Z,99.90
2017-12-09T12:04:00.100Z,99.90
2017-12-09T12:06:30.589Z,99.90
2017-12-09T12:09:02.138Z,99.90
2017-12-09T12:11:32.586Z,99.90
2017-12-09T12:14:05.860Z,99.90
2017-12-09T12:16:36.318Z,99.90
2017-12-09T12:19:07.578Z,99.90
2017-12-09T12:21:38.060Z,99.90
2017-12-09T12:24:08.567Z,99.90
2017-12-09T12:26:39.308Z,99.90
2017-12-09T12:29:09.850Z,99.90
2017-12-09T12:31:40.366Z,99.90
2017-12-09T12:34:10.900Z,99.90
2017-12-09T12:36:41.393Z,99.90
2017-12-09T12:39:12.098Z,99.90
2017-12-09T12:41:43.730Z,99.90
2017-12-09T12:44:15.971Z,99.90
2017-12-09T12:46:50.685Z,99.90
2017-12-09T12:49:23.068Z,99.90
2017-12-09T12:51:54.651Z,99.90
2017-12-09T12:54:27.773Z,99.90
2017-12-09T12:56:59.257Z,99.90
2017-12-09T12:59:30.359Z,99.90
2017-12-09T13:02:01.231Z,99.90
2017-12-09T13:04:34.926Z,99.90
2017-12-09T13:07:07.958Z,99.90
2017-12-09T13:09:39.107Z,99.90
2017-12-09T13:12:09.676Z,99.90
2017-12-09T13:14:40.624Z,99.90
2017-12-09T13:17:12.051Z,99.90
2017-12-09T13:19:44.726Z,99.90
2017-12-09T13:22:16.248Z,99.90
2017-12-09T13:24:48.558Z,99.90
2017-12-09T13:27:20.631Z,99.90
2017-12-09T13:29:52.670Z,99.90
2017-12-09T13:32:25.335Z,99.90
2017-12-09T13:34:55.933Z,99.90
2017-12-09T13:37:26.795Z,99.90
2017-12-09T13:40:03.394Z,99.90
2017-12-09T13:42:33.972Z,99.90
2017-12-09T13:45:05.597Z,99.90
2017-12-09T13:47:36.989Z,99.90
2017-12-09T13:50:07.602Z,99.90
2017-12-09T13:52:38.185Z,99.90
2017-12-09T13:55:09.883Z,99.90
2017-12-09T13:57:41.317Z,99.90
2017-12-09T14:00:11.976Z,99.90
2017-12-09T14:02:42.817Z,99.90
2017-12-09T14:05:15.315Z,99.90
2017-12-09T14:07:46.050Z,99.90
2017-12-09T14:10:16.759Z,99.90
2017-12-09T14:12:47.332Z,99.90
2017-12-09T14:15:18.898Z,99.90
2017-12-09T14:17:50.236Z,99.90
2017-12-09T14:20:21.780Z,99.90
2017-12-09T14:22:53.761Z,99.90
2017-12-09T14:25:25.114Z,99.90
2017-12-09T14:27:55.614Z,99.90
2017-12-09T14:30:26.895Z,99.90
2017-12-09T14:32:57.645Z,99.90
2017-12-09T14:35:28.217Z,99.90
2017-12-09T14:38:00.610Z,99.90
2017-12-09T14:40:31.893Z,99.90
2017-12-09T14:43:02.370Z,99.90
2017-12-09T14:45:33.186Z,99.90
2017-12-09T14:48:03.681Z,99.90
2017-12-09T14:50:34.531Z,99.90
2017-12-09T14:53:04.991Z,99.90
2017-12-09T14:55:35.482Z,99.90
2017-12-09T14:58:05.962Z,99.90
2017-12-09T15:00:37.217Z,99.90
2017-12-09T15:03:08.778Z,99.90
2017-12-09T15:05:39.305Z,99.90
2017-12-09T15:08:10.583Z,99.90
2017-12-09T15:10:41.133Z,99.90
2017-12-09T15:13:11.598Z,99.90
2017-12-09T15:15:43.718Z,99.90
2017-12-09T15:18:14.277Z,99.90
2017-12-09T15:20:44.822Z,99.90
2017-12-09T15:23:16.080Z,99.90
2017-12-09T15:25:47.312Z,99.90
2017-12-09T15:28:19.554Z,99.90
2017-12-09T15:30:50.054Z,99.90
2017-12-09T15:33:21.566Z,99.90
2017-12-09T15:35:54.494Z,99.90
2017-12-09T15:38:24.978Z,99.90
2017-12-09T15:40:56.242Z,99.90
2017-12-09T15:43:26.651Z,99.90
2017-12-09T15:45:58.156Z,99.90
2017-12-09T15:48:28.606Z,99.90
2017-12-09T15:51:00.702Z,99.90
2017-12-09T15:53:31.942Z,99.90
2017-12-09T15:56:04.132Z,99.90
2017-12-09T15:58:35.386Z,99.90
2017-12-09T16:01:05.999Z,99.90
2017-12-09T16:03:36.804Z,99.90
2017-12-09T16:06:09.151Z,99.90
2017-12-09T16:08:40.423Z,99.90
2017-12-09T16:11:11.529Z,99.90
2017-12-09T16:13:41.980Z,99.90
2017-12-09T16:16:12.676Z,99.90
2017-12-09T16:18:43.673Z,99.90
2017-12-09T16:21:15.994Z,99.90
2017-12-09T16:23:46.466Z,99.90
2017-12-09T16:26:18.139Z,99.90
2017-12-09T16:28:49.377Z,99.90
2017-12-09T16:31:21.567Z,99.90
2017-12-09T16:33:52.474Z,99.90
2017-12-09T16:36:22.944Z,99.90
2017-12-09T16:38:53.782Z,99.90
2017-12-09T16:41:24.594Z,99.90
2017-12-09T16:43:55.828Z,99.90
2017-12-09T16:46:28.521Z,99.90
2017-12-09T16:48:59.374Z,99.90
2017-12-09T16:51:31.311Z,99.90
2017-12-09T16:54:02.565Z,99.90
2017-12-09T16:56:33.081Z,99.90
2017-12-09T16:59:04.654Z,99.90
2017-12-09T17:01:35.443Z,99.90
2017-12-09T17:04:05.962Z,99.90
2017-12-09T17:06:36.452Z,99.90
2017-12-09T17:09:07.447Z,99.90
2017-12-09T17:11:37.930Z,99.90
2017-12-09T17:14:08.396Z,99.90
2017-12-09T17:16:39.084Z,99.90
2017-12-09T17:19:09.560Z,99.90
2017-12-09T17:21:40.299Z,99.90
2017-12-09T17:24:10.770Z,99.90
2017-12-09T17:26:41.258Z,99.90
2017-12-09T17:29:11.724Z,99.90
2017-12-09T17:31:42.533Z,99.90
2017-12-09T17:34:13.989Z,99.90
2017-12-09T17:36:45.184Z,99.90
2017-12-09T17:39:16.042Z,99.90
2017-12-09T17:41:46.527Z,99.90
2017-12-09T17:44:16.903Z,99.90
2017-12-09T17:46:48.187Z,99.90
2017-12-09T17:49:18.666Z,99.90
2017-12-09T17:51:49.503Z,99.90
2017-12-09T17:54:20.007Z,99.90
2017-12-09T17:56:50.832Z,99.90
2017-12-09T17:59:21.337Z,99.90
2017-12-09T18:01:52.608Z,99.90
2017-12-09T18:04:23.510Z,99.90
2017-12-09T18:06:54.728Z,99.90
2017-12-09T18:09:26.068Z,99.90
2017-12-09T18:11:56.567Z,99.90
2017-12-09T18:14:27.056Z,99.90
2017-12-09T18:16:58.318Z,99.90
2017-12-09T18:19:30.193Z,99.90
2017-12-09T18:22:00.822Z,99.90
2017-12-09T18:24:31.192Z,99.90
2017-12-09T18:27:02.670Z,99.90
2017-12-09T18:29:33.915Z,99.90
2017-12-09T18:32:05.190Z,99.90
2017-12-09T18:34:35.977Z,99.90
2017-12-09T18:37:06.782Z,99.90
2017-12-09T18:39:37.588Z,99.90
2017-12-09T18:42:08.454Z,99.90
2017-12-09T18:44:38.922Z,99.90
2017-12-09T18:47:09.358Z,99.90
2017-12-09T18:49:40.893Z,99.90
2017-12-09T18:52:12.302Z,99.90
2017-12-09T18:54:42.798Z,99.90
2017-12-09T18:57:14.059Z,99.90
2017-12-09T18:59:44.535Z,99.90
2017-12-09T19:02:15.056Z,99.90
2017-12-09T19:04:45.950Z,99.90
2017-12-09T19:07:16.415Z,99.90
2017-12-09T19:09:47.299Z,99.90
2017-12-09T19:12:18.818Z,99.90
2017-12-09T19:14:49.393Z,99.90
2017-12-09T19:17:20.961Z,99.90
2017-12-09T19:19:51.456Z,99.90
2017-12-09T19:22:23.070Z,99.90
2017-12-09T19:24:53.627Z,99.90
2017-12-09T19:27:24.464Z,99.90
2017-12-09T19:29:54.972Z,99.90
2017-12-09T19:32:25.495Z,99.90
2017-12-09T19:34:55.902Z,99.90
2017-12-09T19:37:26.334Z,99.90
2017-12-09T19:39:58.030Z,99.90
2017-12-09T19:42:28.470Z,99.90
2017-12-09T19:44:59.741Z,99.90
2017-12-09T19:47:30.368Z,99.90
2017-12-09T19:50:01.793Z,99.90
2017-12-09T19:52:32.632Z,99.90
2017-12-09T19:55:03.875Z,99.90
2017-12-09T19:57:35.170Z,99.90
2017-12-09T20:00:05.689Z,99.90
2017-12-09T20:02:36.411Z,99.90
2017-12-09T20:05:06.886Z,99.90
2017-12-09T20:07:37.665Z,99.90
2017-12-09T20:10:09.127Z,99.90
2017-12-09T20:12:39.923Z,99.90
2017-12-09T20:15:10.404Z,99.90
2017-12-09T20:17:40.889Z,99.90
2017-12-09T20:20:14.284Z,99.90
2017-12-09T20:22:45.541Z,99.90
2017-12-09T20:25:16.770Z,99.90
2017-12-09T20:27:47.411Z,99.90
2017-12-09T20:30:18.924Z,99.90
2017-12-09T20:32:50.320Z,99.90
2017-12-09T20:35:21.567Z,99.90
2017-12-09T20:37:52.830Z,99.90
2017-12-09T20:40:23.537Z,99.90
2017-12-09T20:42:54.783Z,99.90
2017-12-09T20:45:26.319Z,99.90
2017-12-09T20:47:57.797Z,99.90
2017-12-09T20:50:29.006Z,99.90
2017-12-09T20:52:59.864Z,99.90
2017-12-09T20:55:31.621Z,99.90
2017-12-09T20:58:03.152Z,99.90
2017-12-09T21:00:34.516Z,99.90
2017-12-09T21:03:05.001Z,99.90
2017-12-09T21:05:37.014Z,99.90
2017-12-09T21:08:08.857Z,99.90
2017-12-09T21:10:40.510Z,99.90
2017-12-09T21:13:11.309Z,99.90
2017-12-09T21:15:42.646Z,99.90
2017-12-09T21:18:13.124Z,99.90
2017-12-09T21:20:43.572Z,99.90
2017-12-09T21:23:16.916Z,99.90
2017-12-09T21:25:48.943Z,99.90
2017-12-09T21:28:20.188Z,99.90
2017-12-09T21:30:56.754Z,99.90
2017-12-09T21:33:28.030Z,99.90
2017-12-09T21:35:58.811Z,99.90
2017-12-09T21:38:29.330Z,99.90
2017-12-09T21:41:00.875Z,99.90
2017-12-09T21:43:35.107Z,99.90
2017-12-09T21:46:06.354Z,99.90
2017-12-09T21:48:37.435Z,99.90
2017-12-09T21:51:09.450Z,99.90
2017-12-09T21:53:40.320Z,99.90
2017-12-09T21:56:11.845Z,99.90
2017-12-09T21:58:43.316Z,99.90
2017-12-09T22:01:14.869Z,99.90
2017-12-09T22:03:46.120Z,99.90
2017-12-09T22:06:18.068Z,99.90
2017-12-09T22:08:49.532Z,99.90
2017-12-09T22:11:22.039Z,99.90
2017-12-09T22:13:52.508Z,99.90
2017-12-09T22:16:23.265Z,99.90
2017-12-09T22:18:54.486Z,99.90
2017-12-09T22:21:24.940Z,99.90
2017-12-09T22:23:56.457Z,99.90
2017-12-09T22:26:27.672Z,99.90
2017-12-09T22:28:58.445Z,99.90
2017-12-09T22:31:28.928Z,99.90
2017-12-09T22:34:00.015Z,99.90
2017-12-09T22:36:30.727Z,99.90
2017-12-09T22:39:02.081Z,99.90
2017-12-09T22:41:32.908Z,99.90
2017-12-09T22:44:04.803Z,99.90
2017-12-09T22:46:36.210Z,99.90
2017-12-09T22:49:07.016Z,99.90
2017-12-09T22:51:38.595Z,99.90
2017-12-09T22:54:13.079Z,99.90
2017-12-09T22:56:45.274Z,99.90
2017-12-09T22:59:17.026Z,99.90
2017-12-09T23:01:48.145Z,99.90
2017-12-09T23:04:20.927Z,99.90
2017-12-09T23:06:54.454Z,99.90
2017-12-09T23:09:25.251Z,99.90
2017-12-09T23:11:56.381Z,99.90
2017-12-09T23:14:29.756Z,99.90
2017-12-09T23:17:00.254Z,99.90
2017-12-09T23:19:30.700Z,99.90
2017-12-09T23:22:02.043Z,99.90
2017-12-09T23:24:32.771Z,99.90
2017-12-09T23:27:03.241Z,99.90
2017-12-09T23:29:33.756Z,99.90
2017-12-09T23:32:04.220Z,99.90
2017-12-09T23:34:35.464Z,99.90
2017-12-09T23:37:08.429Z,99.90
2017-12-09T23:39:38.884Z,99.90
2017-12-09T23:42:11.621Z,99.90
2017-12-09T23:44:42.096Z,99.90
2017-12-09T23:47:13.341Z,99.90
2017-12-09T23:49:45.208Z,99.90
2017-12-09T23:52:18.322Z,99.90
2017-12-09T23:54:50.850Z,99.90
2017-12-09T23:57:21.321Z,99.90
2017-12-09T23:59:52.419Z,99.90
